Terminal Aerodrome Forecast
Issued by NWS

Home | Current Version | Previous Version | Text Only | Print | Product List | Glossary On
Versions: 1 2 3 4 5 6 7 8 9 10 11 12 13
000
FTUS44 KOUN 221120
TAFGAG
TAF
KGAG 221120Z 2212/2312 21010KT P6SM BKN060
     FM221500 36011KT P6SM SCT100 BKN250
     FM222000 05013KT P6SM BKN100 PROB30 2221/2302 4SM -TSRA
      BKN050CB=

USA.gov is the U.S. government's official web portal to all federal, state and local government web resources and services.